Austin, Colorado
Current Conditions -  °F | °C
As of 3:55 PM on Tuesday 21 Oct 2014 (Local Time) from KAJZ Reporting Station
Scattered Clouds Scattered Clouds  
Wind Chill: 68°   Ceiling: Unl
Heat Index: 68°   Visibility: 10mi
Dew Point: 42°   Wind: 12mph
Humidity: 39%   Direction: 130°SE
Pressure: 30"   Gusts: NA
Location:  38.78°N, 107.95°W
Report Text: KAJZ 212155Z AUTO 13010KT 10SM SCT070 20/06 A3000 RMK AO2 T02000057
Loading
Personal Weather Stations






























Interactive Weather Map
Tropical Storm Tracking
New forecast layout! Learn more

10-Day Weather Forecast

Advertisements
Track Severe Weather on mobile